createdAt,value
2022-11-16T00:02:17.363Z,24.83
2022-11-16T00:04:45.391Z,22.70
2022-11-16T00:07:13.494Z,26.07
2022-11-16T00:09:43.152Z,23.10
2022-11-16T00:12:14.549Z,26.50
2022-11-16T00:14:42.472Z,24.83
2022-11-16T00:17:10.509Z,25.37
2022-11-16T00:19:38.370Z,22.97
2022-11-16T00:22:06.730Z,23.23
2022-11-16T00:24:34.627Z,24.57
2022-11-16T00:27:03.865Z,23.53
2022-11-16T00:29:31.881Z,22.10
2022-11-16T00:31:59.783Z,21.63
2022-11-16T00:34:27.650Z,24.73
2022-11-16T00:36:55.484Z,23.43
2022-11-16T00:39:23.656Z,20.03
2022-11-16T00:41:51.563Z,18.63
2022-11-16T00:44:20.833Z,24.83
2022-11-16T00:46:48.814Z,24.67
2022-11-16T00:49:16.771Z,25.30
2022-11-16T00:51:44.646Z,20.47
2022-11-16T00:54:12.754Z,18.93
2022-11-16T00:56:41.896Z,17.77
2022-11-16T00:59:09.800Z,24.27
2022-11-16T01:01:39.239Z,22.70
2022-11-16T01:04:07.182Z,22.23
2022-11-16T01:06:35.039Z,20.70
2022-11-16T01:09:03.291Z,21.87
2022-11-16T01:11:49.032Z,23.73
2022-11-16T01:14:17.200Z,22.23
2022-11-16T01:16:46.507Z,23.60
2022-11-16T01:19:14.338Z,24.60
2022-11-16T01:21:42.229Z,24.93
2022-11-16T01:24:13.073Z,21.80
2022-11-16T01:26:41.093Z,22.63
2022-11-16T01:29:09.109Z,23.10
2022-11-16T01:31:37.199Z,23.83
2022-11-16T01:34:06.459Z,23.53
2022-11-16T01:36:36.619Z,19.63
2022-11-16T01:39:06.309Z,21.83
2022-11-16T01:41:34.364Z,22.43
2022-11-16T01:44:04.069Z,22.33
2022-11-16T01:46:32.645Z,22.50
2022-11-16T01:49:06.553Z,22.00
2022-11-16T01:51:36.419Z,22.90
2022-11-16T01:54:07.660Z,22.63
2022-11-16T01:56:37.727Z,20.63
2022-11-16T01:59:06.403Z,22.03
2022-11-16T02:01:34.322Z,19.67
2022-11-16T02:04:02.124Z,21.10
2022-11-16T02:06:41.558Z,21.47
2022-11-16T02:09:47.893Z,19.50
2022-11-16T02:12:35.740Z,22.10
2022-11-16T02:15:13.124Z,24.03
2022-11-16T02:17:49.715Z,21.47
2022-11-16T02:20:46.813Z,21.83
2022-11-16T02:23:50.089Z,25.10
2022-11-16T02:26:34.810Z,20.97
2022-11-16T02:29:17.834Z,17.97
2022-11-16T02:31:51.707Z,21.40
2022-11-16T02:34:22.274Z,19.40
2022-11-16T02:36:54.164Z,21.10
2022-11-16T02:39:27.067Z,21.57
2022-11-16T02:41:58.034Z,21.03
2022-11-16T02:44:31.788Z,22.60
2022-11-16T02:47:05.060Z,22.23
2022-11-16T02:49:36.056Z,22.83
2022-11-16T02:52:05.314Z,22.80
2022-11-16T02:54:33.119Z,24.00
2022-11-16T02:57:29.918Z,22.13
2022-11-16T03:00:00.544Z,23.07
2022-11-16T03:02:33.707Z,20.17
2022-11-16T03:05:08.467Z,22.13
2022-11-16T03:07:43.613Z,25.13
2022-11-16T03:10:33.216Z,22.90
2022-11-16T03:13:02.466Z,23.67
2022-11-16T03:15:32.185Z,22.03
2022-11-16T03:18:01.665Z,24.63
2022-11-16T03:20:33.687Z,22.30
2022-11-16T03:23:05.262Z,23.37
2022-11-16T03:25:38.785Z,24.17
2022-11-16T03:28:14.405Z,23.97
2022-11-16T03:30:46.268Z,24.60
2022-11-16T03:33:19.285Z,25.00
2022-11-16T03:35:56.433Z,24.37
2022-11-16T03:38:26.710Z,25.60
2022-11-16T03:40:58.114Z,25.40
2022-11-16T03:43:28.208Z,25.37
2022-11-16T03:45:58.716Z,26.17
2022-11-16T03:48:26.743Z,25.40
2022-11-16T03:50:54.606Z,25.80
2022-11-16T03:53:22.443Z,26.63
2022-11-16T03:55:50.254Z,26.87
2022-11-16T03:58:18.668Z,26.70
2022-11-16T04:00:46.851Z,28.23
2022-11-16T04:03:16.142Z,26.30
2022-11-16T04:06:02.013Z,26.80
2022-11-16T04:08:47.435Z,25.07
2022-11-16T04:11:33.739Z,24.40
2022-11-16T04:14:19.149Z,27.63
2022-11-16T04:17:04.543Z,27.63
2022-11-16T04:19:56.759Z,27.83
2022-11-16T04:22:48.184Z,29.60
2022-11-16T04:25:20.560Z,30.23
2022-11-16T04:28:06.497Z,28.00
2022-11-16T04:30:48.591Z,44.10
2022-11-16T04:33:34.234Z,29.83
2022-11-16T04:36:20.973Z,28.80
2022-11-16T04:38:48.795Z,30.20
2022-11-16T04:41:30.614Z,30.77
2022-11-16T04:43:58.785Z,26.57
2022-11-16T04:46:44.384Z,30.40
2022-11-16T04:49:12.407Z,27.40
2022-11-16T04:51:41.598Z,25.27
2022-11-16T04:54:09.574Z,29.23
2022-11-16T04:56:37.558Z,29.63
2022-11-16T04:59:05.372Z,31.10
2022-11-16T05:01:50.703Z,31.00
2022-11-16T05:04:18.787Z,29.10
2022-11-16T05:06:48.279Z,28.53
2022-11-16T05:09:16.866Z,30.10
2022-11-16T05:11:44.876Z,31.43
2022-11-16T05:14:15.725Z,32.63
2022-11-16T05:16:43.828Z,29.70
2022-11-16T05:19:29.392Z,30.97
2022-11-16T05:21:58.660Z,30.50
2022-11-16T05:24:34.600Z,30.00
2022-11-16T05:27:03.129Z,33.00
2022-11-16T05:29:31.099Z,25.47
2022-11-16T05:31:59.244Z,31.67
2022-11-16T05:34:28.012Z,29.07
2022-11-16T05:36:56.842Z,32.33
2022-11-16T05:39:26.109Z,31.40
2022-11-16T05:41:54.480Z,31.37
2022-11-16T05:44:22.320Z,31.53
2022-11-16T05:46:50.541Z,29.30
2022-11-16T05:49:19.152Z,31.60
2022-11-16T05:51:48.271Z,31.10
2022-11-16T05:54:19.006Z,32.73
2022-11-16T05:56:48.807Z,30.37
2022-11-16T05:59:19.050Z,32.03
2022-11-16T06:01:47.480Z,30.73
2022-11-16T06:04:15.806Z,30.87
2022-11-16T06:06:43.784Z,31.70
2022-11-16T06:09:12.411Z,32.13
2022-11-16T06:11:40.292Z,31.97
2022-11-16T06:14:09.946Z,31.20
2022-11-16T06:16:37.722Z,32.13
2022-11-16T06:19:05.574Z,30.43
2022-11-16T06:21:33.614Z,34.40
2022-11-16T06:24:02.783Z,31.97
2022-11-16T06:26:30.846Z,33.20
2022-11-16T06:28:58.771Z,32.03
2022-11-16T06:31:27.979Z,33.57
2022-11-16T06:33:55.952Z,33.60
2022-11-16T06:36:23.919Z,33.00
2022-11-16T06:38:51.910Z,32.90
2022-11-16T06:41:20.127Z,34.50
2022-11-16T06:43:48.067Z,33.80
2022-11-16T06:46:16.069Z,28.93
2022-11-16T06:48:45.356Z,32.97
2022-11-16T06:51:13.351Z,32.57
2022-11-16T06:53:41.420Z,34.20
2022-11-16T06:56:14.663Z,34.60
2022-11-16T06:58:43.192Z,32.67
2022-11-16T07:01:13.120Z,33.80
2022-11-16T07:03:41.282Z,30.67
2022-11-16T07:06:12.271Z,33.43
2022-11-16T07:08:40.588Z,35.17
2022-11-16T07:11:10.353Z,32.57
2022-11-16T07:13:39.952Z,33.77
2022-11-16T07:16:09.497Z,33.63
2022-11-16T07:18:39.274Z,34.10
2022-11-16T07:21:08.277Z,33.07
2022-11-16T07:23:38.175Z,31.70
2022-11-16T07:26:07.914Z,34.97
2022-11-16T07:28:36.767Z,36.07
2022-11-16T07:31:06.263Z,33.67
2022-11-16T07:33:34.324Z,37.07
2022-11-16T07:36:03.450Z,34.20
2022-11-16T07:38:33.181Z,34.63
2022-11-16T07:41:05.252Z,35.83
2022-11-16T07:43:35.148Z,34.00
2022-11-16T07:48:52.425Z,32.40
2022-11-16T07:51:21.345Z,34.97
2022-11-16T07:53:49.059Z,35.77
2022-11-16T07:56:18.252Z,31.63
2022-11-16T07:58:46.570Z,36.80
2022-11-16T08:01:16.241Z,27.83
2022-11-16T08:03:45.754Z,33.73
2022-11-16T08:06:28.927Z,35.37
2022-11-16T08:08:58.926Z,36.00
2022-11-16T08:11:30.788Z,34.40
2022-11-16T08:14:01.631Z,32.87
2022-11-16T08:16:29.503Z,33.80
2022-11-16T08:18:57.232Z,30.73
2022-11-16T08:21:25.117Z,33.87
2022-11-16T08:23:58.118Z,32.10
2022-11-16T08:26:28.260Z,32.07
2022-11-16T08:28:57.244Z,31.40
2022-11-16T08:31:26.958Z,30.53
2022-11-16T08:33:55.583Z,28.80
2022-11-16T08:36:23.751Z,30.53
2022-11-16T08:38:52.552Z,31.47
2022-11-16T08:41:22.108Z,27.80
2022-11-16T08:43:53.275Z,26.67
2022-11-16T08:46:21.985Z,26.90
2022-11-16T08:48:50.066Z,26.23
2022-11-16T08:51:20.664Z,26.10
2022-11-16T08:53:49.477Z,27.17
2022-11-16T08:56:19.267Z,27.20
2022-11-16T08:58:50.281Z,29.07
2022-11-16T09:01:24.178Z,29.27
2022-11-16T09:03:53.153Z,26.30
2022-11-16T09:06:22.198Z,24.50
2022-11-16T09:08:50.388Z,25.30
2022-11-16T09:11:20.383Z,25.87
2022-11-16T09:13:49.320Z,22.20
2022-11-16T09:16:17.965Z,21.70
2022-11-16T09:18:48.250Z,24.00
2022-11-16T09:21:18.964Z,23.67
2022-11-16T09:23:47.683Z,21.97
2022-11-16T09:26:19.414Z,23.57
2022-11-16T09:28:47.625Z,23.97
2022-11-16T09:31:20.284Z,21.17
2022-11-16T09:33:52.338Z,19.93
2022-11-16T09:36:20.598Z,19.30
2022-11-16T09:39:28.914Z,19.73
2022-11-16T09:41:49.307Z,16.57
2022-11-16T09:44:35.648Z,17.17
2022-11-16T09:47:04.002Z,11.23
2022-11-16T09:49:39.191Z,14.13
2022-11-16T09:52:12.373Z,13.03
2022-11-16T09:54:45.320Z,13.03
2022-11-16T09:57:20.094Z,14.37
2022-11-16T09:59:50.700Z,16.57
2022-11-16T10:02:25.036Z,13.70
2022-11-16T10:04:58.977Z,13.70
2022-11-16T10:07:32.952Z,14.30
2022-11-16T10:10:00.969Z,14.03
2022-11-16T10:12:36.172Z,16.27
2022-11-16T10:15:30.483Z,14.70
2022-11-16T10:18:15.425Z,15.43
2022-11-16T10:21:02.045Z,17.10
2022-11-16T10:23:42.793Z,16.87
2022-11-16T10:26:21.654Z,14.37
2022-11-16T10:29:00.415Z,17.87
2022-11-16T10:31:46.122Z,16.30
2022-11-16T10:34:20.235Z,15.67
2022-11-16T10:37:03.248Z,17.27
2022-11-16T10:39:34.295Z,18.63
2022-11-16T10:42:07.596Z,18.33
2022-11-16T10:44:41.466Z,16.83
2022-11-16T10:47:20.898Z,15.47
2022-11-16T10:49:57.050Z,17.13
2022-11-16T10:52:27.439Z,15.03
2022-11-16T10:54:58.505Z,16.67
2022-11-16T10:57:28.607Z,17.33
2022-11-16T10:59:57.162Z,16.93
2022-11-16T11:02:54.762Z,16.07
2022-11-16T11:05:22.983Z,17.33
2022-11-16T11:08:01.663Z,17.67
2022-11-16T11:10:31.972Z,17.10
2022-11-16T11:13:24.372Z,16.40
2022-11-16T11:15:53.187Z,15.87
2022-11-16T11:18:29.130Z,15.73
2022-11-16T11:21:10.150Z,13.77
2022-11-16T11:23:46.714Z,15.47
2022-11-16T11:26:35.895Z,15.73
2022-11-16T11:29:16.932Z,15.80
2022-11-16T11:31:47.353Z,16.47
2022-11-16T11:34:20.251Z,15.63
2022-11-16T11:36:51.829Z,15.93
2022-11-16T11:39:36.482Z,16.90
2022-11-16T11:42:22.274Z,16.83
2022-11-16T11:44:57.278Z,17.80
2022-11-16T11:47:59.627Z,18.83
2022-11-16T11:50:40.053Z,17.10
2022-11-16T11:53:20.090Z,18.40
2022-11-16T11:55:51.522Z,18.97
2022-11-16T11:58:22.238Z,18.37
2022-11-16T12:01:02.161Z,17.87
2022-11-16T12:03:51.928Z,17.43
2022-11-16T12:06:32.781Z,18.13
2022-11-16T12:09:20.124Z,15.53
2022-11-16T12:12:08.171Z,18.77
2022-11-16T12:14:58.088Z,18.07
2022-11-16T12:17:34.761Z,18.03
2022-11-16T12:20:17.926Z,17.57
2022-11-16T12:23:04.531Z,18.60
2022-11-16T12:25:42.811Z,20.07
2022-11-16T12:28:26.018Z,17.63
2022-11-16T12:31:29.629Z,17.37
2022-11-16T12:34:06.175Z,18.43
2022-11-16T12:36:41.568Z,18.07
2022-11-16T12:39:23.707Z,17.37
2022-11-16T12:42:09.239Z,18.70
2022-11-16T12:44:58.842Z,16.17
2022-11-16T12:47:40.247Z,17.60
2022-11-16T12:50:25.760Z,16.33
2022-11-16T12:53:09.088Z,18.23
2022-11-16T12:55:45.198Z,16.47
2022-11-16T12:58:25.809Z,17.67
2022-11-16T13:01:12.115Z,17.20
2022-11-16T13:03:47.139Z,17.93
2022-11-16T13:06:20.374Z,18.07
2022-11-16T13:08:58.185Z,18.97
2022-11-16T13:11:29.223Z,16.67
2022-11-16T13:13:59.926Z,16.43
2022-11-16T13:16:30.470Z,17.07
2022-11-16T13:19:00.435Z,16.60
2022-11-16T13:21:44.728Z,16.67
2022-11-16T13:24:33.884Z,17.40
2022-11-16T13:27:25.475Z,16.37
2022-11-16T13:30:00.284Z,16.00
2022-11-16T13:32:44.551Z,16.10
2022-11-16T13:35:15.990Z,16.07
2022-11-16T13:37:45.686Z,17.07
2022-11-16T13:40:30.762Z,16.00
2022-11-16T13:43:17.774Z,16.80
2022-11-16T13:46:01.475Z,17.03
2022-11-16T13:48:35.343Z,15.00
2022-11-16T13:51:06.900Z,14.97
2022-11-16T13:56:29.383Z,16.77
2022-11-16T13:58:58.579Z,14.50
2022-11-16T14:01:27.182Z,13.63
2022-11-16T14:04:39.948Z,17.17
2022-11-16T14:07:30.225Z,16.20
2022-11-16T14:09:58.396Z,14.87
2022-11-16T14:12:57.303Z,12.77
2022-11-16T14:15:34.234Z,14.93
2022-11-16T14:18:22.108Z,16.63
2022-11-16T14:20:58.018Z,14.10
2022-11-16T14:23:34.146Z,13.73
2022-11-16T14:26:13.789Z,13.37
2022-11-16T14:29:00.401Z,16.80
2022-11-16T14:31:32.424Z,14.13
2022-11-16T14:34:01.953Z,14.03
2022-11-16T14:36:40.630Z,13.43
2022-11-16T14:39:26.031Z,11.83
2022-11-16T14:41:55.177Z,13.43
2022-11-16T14:44:27.509Z,13.57
2022-11-16T14:46:55.613Z,13.67
2022-11-16T14:49:26.039Z,13.80
2022-11-16T14:51:59.906Z,15.83
2022-11-16T14:54:36.341Z,13.70
2022-11-16T14:57:05.773Z,14.20
2022-11-16T14:59:41.022Z,13.37
2022-11-16T15:02:20.235Z,13.93
2022-11-16T15:04:49.296Z,13.53
2022-11-16T15:07:19.693Z,21.87
2022-11-16T15:09:50.728Z,15.77
2022-11-16T15:12:38.451Z,15.90
2022-11-16T15:15:13.780Z,12.87
2022-11-16T15:17:44.438Z,13.27
2022-11-16T15:20:21.229Z,12.87
2022-11-16T15:22:53.506Z,12.00
2022-11-16T15:25:27.894Z,12.83
2022-11-16T15:27:56.698Z,12.80
2022-11-16T15:30:27.888Z,18.13
2022-11-16T15:32:56.863Z,14.03
2022-11-16T15:35:28.902Z,12.80
2022-11-16T15:38:06.675Z,11.00
2022-11-16T15:40:36.275Z,12.30
2022-11-16T15:43:06.165Z,10.40
2022-11-16T15:45:35.226Z,9.93
2022-11-16T15:48:05.032Z,11.73
2022-11-16T15:50:35.079Z,11.43
2022-11-16T15:53:04.357Z,11.87
2022-11-16T15:55:35.954Z,10.97
2022-11-16T15:58:14.175Z,11.10
2022-11-16T16:00:43.594Z,11.13
2022-11-16T16:03:21.766Z,8.50
2022-11-16T16:05:50.557Z,9.53
2022-11-16T16:08:32.632Z,11.07
2022-11-16T16:11:11.468Z,10.73
2022-11-16T16:13:42.281Z,11.50
2022-11-16T16:16:37.054Z,10.50
2022-11-16T16:19:09.967Z,10.93
2022-11-16T16:21:44.376Z,9.73
2022-11-16T16:24:42.481Z,8.73
2022-11-16T16:27:18.024Z,9.70
2022-11-16T16:29:49.938Z,9.70
2022-11-16T16:32:25.348Z,10.07
2022-11-16T16:34:57.978Z,11.00
2022-11-16T16:37:28.148Z,10.83
2022-11-16T16:39:56.051Z,11.13
2022-11-16T16:42:25.508Z,10.23
2022-11-16T16:44:53.693Z,9.50
2022-11-16T16:47:22.192Z,10.67
2022-11-16T16:49:50.801Z,10.17
2022-11-16T16:52:19.434Z,11.23
2022-11-16T16:54:48.974Z,9.63
2022-11-16T16:57:18.395Z,8.93
2022-11-16T16:59:48.426Z,10.50
2022-11-16T17:02:17.913Z,11.20
2022-11-16T17:04:46.774Z,10.73
2022-11-16T17:07:15.017Z,9.27
2022-11-16T17:09:43.031Z,9.73
2022-11-16T17:12:11.332Z,9.03
2022-11-16T17:14:39.327Z,10.30
2022-11-16T17:17:08.829Z,10.37
2022-11-16T17:19:36.826Z,9.13
2022-11-16T17:22:05.009Z,9.63
2022-11-16T17:24:33.091Z,9.73
2022-11-16T17:27:06.695Z,9.83
2022-11-16T17:29:35.080Z,9.60
2022-11-16T17:32:08.456Z,10.33
2022-11-16T17:34:40.087Z,10.07
2022-11-16T17:37:08.127Z,10.20
2022-11-16T17:39:36.072Z,10.37
2022-11-16T17:42:04.032Z,9.60
2022-11-16T17:44:32.084Z,7.53
2022-11-16T17:46:59.886Z,10.27
2022-11-16T17:49:28.077Z,9.17
2022-11-16T17:51:57.405Z,9.77
2022-11-16T17:54:25.498Z,10.10
2022-11-16T17:56:53.448Z,9.67
2022-11-16T17:59:24.975Z,9.40
2022-11-16T18:01:57.690Z,9.17
2022-11-16T18:04:25.624Z,8.60
2022-11-16T18:06:53.595Z,9.73
2022-11-16T18:09:22.994Z,10.53
2022-11-16T18:11:51.001Z,8.67
2022-11-16T18:14:19.256Z,8.67
2022-11-16T18:17:15.697Z,8.00
2022-11-16T18:19:44.706Z,9.13
2022-11-16T18:22:13.463Z,7.93
2022-11-16T18:24:42.745Z,8.27
2022-11-16T18:27:11.209Z,8.23
2022-11-16T18:29:39.242Z,8.20
2022-11-16T18:32:07.319Z,9.17
2022-11-16T18:34:35.616Z,7.93
2022-11-16T18:37:04.157Z,8.30
2022-11-16T18:39:32.165Z,7.90
2022-11-16T18:42:02.111Z,7.93
2022-11-16T18:44:30.012Z,6.50
2022-11-16T18:46:57.988Z,7.60
2022-11-16T18:49:25.818Z,8.40
2022-11-16T18:51:54.062Z,7.53
2022-11-16T18:54:22.165Z,7.07
2022-11-16T18:56:50.215Z,7.87
2022-11-16T18:59:19.653Z,6.47
2022-11-16T19:01:47.508Z,6.93
2022-11-16T19:04:15.660Z,7.13
2022-11-16T19:06:43.575Z,7.17
2022-11-16T19:09:11.530Z,6.37
2022-11-16T19:11:39.705Z,7.17
2022-11-16T19:14:08.481Z,7.33
2022-11-16T19:16:41.867Z,7.17
2022-11-16T19:19:13.619Z,6.87
2022-11-16T19:21:42.137Z,5.73
2022-11-16T19:24:10.197Z,6.83
2022-11-16T19:26:38.210Z,6.93
2022-11-16T19:29:06.818Z,6.77
2022-11-16T19:31:35.030Z,6.03
2022-11-16T19:34:06.039Z,6.43
2022-11-16T19:36:35.761Z,6.47
2022-11-16T19:39:03.693Z,7.37
2022-11-16T19:41:34.925Z,7.13
2022-11-16T19:44:02.977Z,6.30
2022-11-16T19:46:34.096Z,7.07
2022-11-16T19:49:02.718Z,6.57
2022-11-16T19:51:33.993Z,5.43
2022-11-16T19:54:03.839Z,6.53
2022-11-16T19:56:31.922Z,7.03
2022-11-16T19:58:59.881Z,5.93
2022-11-16T20:01:29.681Z,6.90
2022-11-16T20:03:59.778Z,6.87
2022-11-16T20:06:29.535Z,6.73
2022-11-16T20:09:00.878Z,6.30
2022-11-16T20:11:30.292Z,6.10
2022-11-16T20:14:01.431Z,7.13
2022-11-16T20:16:35.559Z,6.90
2022-11-16T20:19:07.261Z,6.13
2022-11-16T20:21:37.170Z,5.80
2022-11-16T20:24:31.115Z,6.80
2022-11-16T20:26:59.075Z,5.70
2022-11-16T20:29:26.940Z,7.07
2022-11-16T20:31:55.144Z,20.17
2022-11-16T20:34:23.088Z,6.93
2022-11-16T20:36:51.698Z,7.23
2022-11-16T20:39:21.490Z,6.70
2022-11-16T20:41:51.058Z,6.73
2022-11-16T20:44:22.546Z,7.53
2022-11-16T20:46:52.430Z,6.80
2022-11-16T20:49:20.433Z,7.17
2022-11-16T20:51:50.481Z,6.60
2022-11-16T20:54:18.410Z,8.43
2022-11-16T20:56:48.199Z,7.03
2022-11-16T20:59:20.603Z,6.87
2022-11-16T21:01:51.552Z,6.10
2022-11-16T21:04:20.912Z,7.00
2022-11-16T21:06:48.795Z,6.53
2022-11-16T21:09:28.067Z,7.57
2022-11-16T21:12:38.766Z,7.10
2022-11-16T21:15:11.953Z,7.83
2022-11-16T21:17:39.891Z,8.03
2022-11-16T21:20:27.101Z,7.70
2022-11-16T21:22:56.021Z,7.13
2022-11-16T21:25:23.939Z,6.40
2022-11-16T21:27:55.840Z,7.53
2022-11-16T21:30:56.934Z,6.73
2022-11-16T21:36:14.920Z,5.97
2022-11-16T21:38:44.477Z,6.63
2022-11-16T21:41:16.386Z,6.53
2022-11-16T21:44:13.169Z,7.10
2022-11-16T21:46:43.345Z,7.60
2022-11-16T21:49:11.848Z,6.70
2022-11-16T21:51:44.311Z,6.63
2022-11-16T21:54:12.490Z,5.73
2022-11-16T21:56:46.180Z,9.20
2022-11-16T21:59:15.042Z,7.43
2022-11-16T22:01:59.908Z,6.57
2022-11-16T22:04:46.142Z,9.00
2022-11-16T22:07:36.766Z,6.93
2022-11-16T22:10:09.319Z,7.17
2022-11-16T22:12:37.826Z,7.20
2022-11-16T22:15:08.286Z,7.53
2022-11-16T22:17:37.507Z,7.10
2022-11-16T22:20:14.188Z,7.20
2022-11-16T22:22:42.327Z,7.00
2022-11-16T22:25:26.544Z,6.17
2022-11-16T22:30:45.102Z,6.00
2022-11-16T22:33:17.979Z,5.83
2022-11-16T22:35:48.431Z,6.80
2022-11-16T22:38:16.366Z,6.23
2022-11-16T22:40:49.882Z,6.57
2022-11-16T22:43:17.923Z,6.70
2022-11-16T22:45:51.852Z,7.07
2022-11-16T22:48:21.182Z,7.00
2022-11-16T22:50:49.219Z,10.20
2022-11-16T22:53:17.038Z,7.17
2022-11-16T22:55:45.036Z,6.67
2022-11-16T22:58:12.969Z,5.53
2022-11-16T23:00:42.386Z,7.33
2022-11-16T23:03:10.469Z,6.67
2022-11-16T23:05:40.089Z,8.47
2022-11-16T23:08:08.027Z,6.57
2022-11-16T23:10:56.257Z,7.50
2022-11-16T23:13:41.830Z,7.23
2022-11-16T23:16:10.258Z,7.40
2022-11-16T23:18:52.831Z,7.40
2022-11-16T23:21:39.895Z,7.83
2022-11-16T23:24:28.492Z,7.03
2022-11-16T23:27:17.357Z,5.87
2022-11-16T23:29:45.454Z,7.63
2022-11-16T23:32:16.336Z,6.77
2022-11-16T23:34:44.462Z,8.27
2022-11-16T23:37:13.670Z,6.27
2022-11-16T23:39:41.401Z,7.50
2022-11-16T23:42:32.402Z,8.33
2022-11-16T23:52:54.970Z,5.97
2022-11-16T23:55:27.608Z,8.40
